Time;durP1;ratioP1;P1;durP2;ratioP2;P2;SDS_P1;SDS_P2;PMS_P1;PMS_P2;Temp;Humidity;BMP_temperature;BMP_pressure;BME280_temperature;BME280_humidity;BME280_pressure;Samples;Min_cycle;Max_cycle;Signal;HPM_P1;HPM_P2
2022/10/25 00:00:20;;;;;;;;;;;20.00;61.30;;;;;;5072494;28;19913;-59
2022/10/25 00:02:46;;;;;;;;;;;20.00;61.30;;;;;;5072768;28;20353;-60
2022/10/25 00:05:12;;;;;;;;;;;20.00;61.30;;;;;;5072763;28;19916;-59
2022/10/25 00:07:38;;;;;;;;;;;20.00;61.30;;;;;;5051620;28;19989;-59
2022/10/25 00:10:03;;;;;;;;;;;20.00;61.20;;;;;;5071681;28;19962;-59
2022/10/25 00:12:29;;;;;;;;;;;20.00;61.20;;;;;;5072773;28;19909;-59
2022/10/25 00:14:54;;;;;;;;;;;20.00;61.30;;;;;;5072364;28;19912;-59
2022/10/25 00:17:20;;;;;;;;;;;20.00;61.30;;;;;;5072725;28;20071;-59
2022/10/25 00:19:45;;;;;;;;;;;20.00;61.30;;;;;;5072328;28;19966;-60
2022/10/25 00:22:10;;;;;;;;;;;19.90;61.30;;;;;;5072654;28;19938;-60
2022/10/25 00:24:36;;;;;;;;;;;19.90;61.30;;;;;;5071497;28;19908;-60
2022/10/25 00:27:01;;;;;;;;;;;19.90;61.40;;;;;;5072463;28;19909;-60
2022/10/25 00:29:27;;;;;;;;;;;19.90;61.40;;;;;;5071827;28;19909;-59
2022/10/25 00:31:52;;;;;;;;;;;19.90;61.30;;;;;;5052382;28;20284;-60
2022/10/25 00:34:18;;;;;;;;;;;19.90;61.40;;;;;;5052405;28;19909;-59
2022/10/25 00:36:43;;;;;;;;;;;19.90;61.50;;;;;;5052342;28;19908;-59
2022/10/25 00:39:09;;;;;;;;;;;19.80;61.40;;;;;;5064737;28;19964;-59
2022/10/25 00:41:34;;;;;;;;;;;19.80;61.50;;;;;;5053926;28;20283;-59
2022/10/25 00:44:18;;;;;;;;;;;19.80;61.40;;;;;;5072412;28;20358;-59
2022/10/25 00:46:43;;;;;;;;;;;19.90;61.50;;;;;;5072330;28;19963;-59
2022/10/25 00:49:12;;;;;;;;;;;19.80;61.40;;;;;;5072184;28;20372;-59
2022/10/25 00:51:39;;;;;;;;;;;19.80;61.50;;;;;;5072234;28;19908;-59
2022/10/25 00:54:04;;;;;;;;;;;19.80;61.60;;;;;;5073980;28;19915;-59
2022/10/25 00:56:31;;;;;;;;;;;19.80;61.50;;;;;;5073960;28;20330;-59
2022/10/25 00:58:57;;;;;;;;;;;19.80;61.70;;;;;;5074702;28;19912;-59
2022/10/25 01:01:23;;;;;;;;;;;19.70;61.60;;;;;;5075814;28;20421;-59
2022/10/25 01:03:48;;;;;;;;;;;19.80;61.70;;;;;;5075941;28;19912;-60
2022/10/25 01:06:16;;;;;;;;;;;19.80;61.60;;;;;;5081036;28;20006;-59
2022/10/25 01:08:42;;;;;;;;;;;19.80;61.60;;;;;;5078493;28;19957;-60
2022/10/25 01:11:07;;;;;;;;;;;19.80;61.60;;;;;;5095087;28;19915;-60
2022/10/25 01:13:33;;;;;;;;;;;19.80;61.60;;;;;;5096008;28;19908;-60
2022/10/25 01:16:06;;;;;;;;;;;19.80;61.50;;;;;;5095845;28;19908;-59
2022/10/25 01:18:46;;;;;;;;;;;19.80;61.50;;;;;;5077722;28;19934;-60
2022/10/25 01:21:20;;;;;;;;;;;19.80;61.40;;;;;;5057598;28;19991;-59
2022/10/25 01:23:52;;;;;;;;;;;19.90;61.40;;;;;;5057723;28;19956;-59
2022/10/25 01:26:31;;;;;;;;;;;19.80;61.30;;;;;;5056631;28;19940;-59
2022/10/25 01:28:56;;;;;;;;;;;19.80;61.30;;;;;;5057585;28;19912;-59
2022/10/25 01:31:38;;;;;;;;;;;19.80;61.40;;;;;;5075200;28;20459;-59
2022/10/25 01:34:10;;;;;;;;;;;19.80;61.40;;;;;;5057372;28;19920;-59
2022/10/25 01:36:48;;;;;;;;;;;19.80;61.50;;;;;;5075207;28;19931;-59
2022/10/25 01:39:16;;;;;;;;;;;19.80;61.50;;;;;;5070550;28;19915;-59
2022/10/25 01:42:00;;;;;;;;;;;19.70;61.40;;;;;;5095052;28;20394;-59
2022/10/25 01:44:34;;;;;;;;;;;19.80;61.50;;;;;;5095223;28;20423;-60
2022/10/25 01:47:00;;;;;;;;;;;19.80;61.40;;;;;;5095316;28;19953;-59
2022/10/25 01:49:32;;;;;;;;;;;19.80;61.40;;;;;;5095250;28;19908;-59
2022/10/25 01:51:57;;;;;;;;;;;19.80;61.30;;;;;;5095292;28;19954;-59
2022/10/25 01:54:26;;;;;;;;;;;19.80;61.30;;;;;;5094521;28;19908;-58
2022/10/25 01:56:56;;;;;;;;;;;19.80;61.30;;;;;;5095209;28;19947;-58
2022/10/25 01:59:38;;;;;;;;;;;19.80;61.20;;;;;;5057887;28;19917;-58
2022/10/25 02:02:16;;;;;;;;;;;19.90;61.30;;;;;;5057060;28;20287;-59
2022/10/25 02:04:45;;;;;;;;;;;19.90;61.20;;;;;;5074493;28;19920;-59
2022/10/25 02:07:14;;;;;;;;;;;19.90;61.20;;;;;;5074659;28;20019;-59
2022/10/25 02:10:00;;;;;;;;;;;19.90;61.20;;;;;;5073386;28;19918;-59
2022/10/25 02:12:29;;;;;;;;;;;19.90;61.10;;;;;;5095051;28;19916;-58
2022/10/25 02:15:02;;;;;;;;;;;19.90;61.20;;;;;;5094623;28;19912;-59
2022/10/25 02:17:27;;;;;;;;;;;19.80;61.10;;;;;;5076793;28;19915;-59
2022/10/25 02:19:53;;;;;;;;;;;19.90;61.30;;;;;;5076480;28;19908;-59
2022/10/25 02:22:20;;;;;;;;;;;19.80;61.30;;;;;;5076798;28;20294;-59
2022/10/25 02:24:46;;;;;;;;;;;19.80;61.30;;;;;;5094098;28;19919;-59
2022/10/25 02:27:11;;;;;;;;;;;19.80;62.20;;;;;;5076585;28;20391;-59
2022/10/25 02:29:37;;;;;;;;;;;19.80;61.50;;;;;;5076176;28;20006;-59
2022/10/25 02:32:03;;;;;;;;;;;19.70;61.50;;;;;;5076431;28;20355;-59
2022/10/25 02:34:28;;;;;;;;;;;19.70;61.50;;;;;;5076200;28;20434;-59
2022/10/25 02:36:53;;;;;;;;;;;19.80;61.50;;;;;;5094400;28;20019;-60
2022/10/25 02:39:19;;;;;;;;;;;19.70;61.50;;;;;;5076040;28;19961;-60
2022/10/25 02:41:45;;;;;;;;;;;19.70;61.50;;;;;;5075818;28;20368;-59
2022/10/25 02:44:10;;;;;;;;;;;19.70;61.50;;;;;;5076058;28;19952;-60
2022/10/25 02:46:36;;;;;;;;;;;19.80;61.60;;;;;;5094257;28;20395;-60
2022/10/25 02:49:01;;;;;;;;;;;19.70;61.50;;;;;;5074421;28;19915;-58
2022/10/25 02:51:26;;;;;;;;;;;19.70;61.50;;;;;;5073610;28;20007;-59
2022/10/25 02:53:52;;;;;;;;;;;19.70;61.50;;;;;;5055968;28;19915;-59
2022/10/25 02:56:19;;;;;;;;;;;19.70;61.50;;;;;;5054828;28;19958;-59
2022/10/25 02:58:44;;;;;;;;;;;19.70;61.50;;;;;;5055895;28;19936;-59
2022/10/25 03:01:10;;;;;;;;;;;19.70;61.70;;;;;;5073535;28;20364;-58
2022/10/25 03:03:35;;;;;;;;;;;19.70;61.60;;;;;;5073820;28;19916;-58
2022/10/25 03:06:01;;;;;;;;;;;19.70;61.60;;;;;;5073248;28;19916;-58
2022/10/25 03:08:26;;;;;;;;;;;19.70;61.50;;;;;;5080777;28;20283;-59
2022/10/25 03:10:52;;;;;;;;;;;19.70;61.50;;;;;;5092747;28;19978;-59
2022/10/25 03:13:17;;;;;;;;;;;19.70;61.40;;;;;;5093611;28;19912;-59
2022/10/25 03:15:43;;;;;;;;;;;19.80;61.60;;;;;;5093147;28;19911;-60
2022/10/25 03:18:08;;;;;;;;;;;19.70;61.50;;;;;;5075166;28;19912;-60
2022/10/25 03:20:34;;;;;;;;;;;19.70;61.50;;;;;;5058996;28;19915;-60
2022/10/25 03:22:59;;;;;;;;;;;19.70;61.50;;;;;;5073338;28;19947;-60
2022/10/25 03:25:25;;;;;;;;;;;19.70;61.40;;;;;;5072172;28;19908;-59
2022/10/25 03:27:50;;;;;;;;;;;19.80;61.50;;;;;;5073097;28;19916;-60
2022/10/25 03:30:16;;;;;;;;;;;19.80;61.40;;;;;;5054941;28;19913;-59
2022/10/25 03:32:42;;;;;;;;;;;19.80;61.30;;;;;;5073127;28;19909;-59
2022/10/25 03:35:07;;;;;;;;;;;19.80;61.40;;;;;;5054973;28;19920;-59
2022/10/25 03:37:33;;;;;;;;;;;19.80;61.40;;;;;;5072950;28;19935;-59
2022/10/25 03:39:58;;;;;;;;;;;19.80;61.40;;;;;;5091723;28;19914;-59
2022/10/25 03:42:23;;;;;;;;;;;19.80;61.40;;;;;;5075040;28;19923;-59
2022/10/25 03:44:49;;;;;;;;;;;19.80;61.30;;;;;;5092981;28;19908;-59
2022/10/25 03:47:14;;;;;;;;;;;19.80;61.40;;;;;;5093173;28;19916;-59
2022/10/25 03:49:40;;;;;;;;;;;19.70;61.40;;;;;;5093290;28;20309;-59
2022/10/25 03:52:06;;;;;;;;;;;19.70;61.40;;;;;;5093178;28;19915;-60
2022/10/25 03:54:32;;;;;;;;;;;19.70;61.50;;;;;;5092156;28;19951;-60
2022/10/25 03:56:57;;;;;;;;;;;19.70;61.60;;;;;;5092949;28;20305;-60
2022/10/25 03:59:23;;;;;;;;;;;19.70;61.60;;;;;;5092635;28;19912;-60
2022/10/25 04:01:48;;;;;;;;;;;19.70;61.50;;;;;;5092875;28;20333;-59
2022/10/25 04:04:13;;;;;;;;;;;19.70;61.50;;;;;;5092609;28;20318;-59
2022/10/25 04:06:39;;;;;;;;;;;19.70;61.30;;;;;;5092385;28;20286;-59
2022/10/25 04:09:04;;;;;;;;;;;19.70;61.20;;;;;;5084727;28;19909;-59
2022/10/25 04:11:30;;;;;;;;;;;19.80;61.20;;;;;;5071623;28;19908;-59
2022/10/25 04:13:55;;;;;;;;;;;19.80;61.10;;;;;;5072492;28;20283;-59
2022/10/25 04:16:22;;;;;;;;;;;19.80;61.10;;;;;;5072275;28;19920;-59
2022/10/25 04:18:48;;;;;;;;;;;19.80;61.10;;;;;;5072560;28;19913;-59
2022/10/25 04:21:14;;;;;;;;;;;19.80;61.00;;;;;;5054528;28;19908;-59
2022/10/25 04:23:39;;;;;;;;;;;19.80;61.00;;;;;;5072526;28;20275;-60
2022/10/25 04:26:05;;;;;;;;;;;19.80;61.00;;;;;;5071506;28;19916;-59
2022/10/25 04:28:30;;;;;;;;;;;19.80;61.10;;;;;;5073060;28;19912;-59
2022/10/25 04:30:56;;;;;;;;;;;19.80;61.10;;;;;;5076201;28;19909;-60
2022/10/25 04:33:21;;;;;;;;;;;19.80;61.10;;;;;;5076508;28;19912;-60
2022/10/25 04:35:56;;;;;;;;;;;19.70;61.10;;;;;;5076169;28;19912;-59
2022/10/25 04:38:22;;;;;;;;;;;19.80;61.30;;;;;;5082699;28;19916;-60
2022/10/25 04:40:57;;;;;;;;;;;19.70;61.30;;;;;;5095609;28;20322;-59
2022/10/25 04:43:22;;;;;;;;;;;19.70;61.40;;;;;;5078507;28;19961;-60
2022/10/25 04:45:48;;;;;;;;;;;19.70;61.40;;;;;;5078191;28;19908;-59
2022/10/25 04:48:13;;;;;;;;;;;19.70;61.50;;;;;;5083499;28;20000;-59
2022/10/25 04:50:39;;;;;;;;;;;19.70;61.50;;;;;;5075797;28;20007;-59
2022/10/25 04:53:04;;;;;;;;;;;19.70;61.50;;;;;;5076057;28;20000;-59
2022/10/25 04:55:30;;;;;;;;;;;19.70;61.50;;;;;;5074987;28;19912;-59
2022/10/25 04:57:56;;;;;;;;;;;19.70;61.50;;;;;;5058111;28;19938;-58
2022/10/25 05:00:21;;;;;;;;;;;19.70;61.50;;;;;;5075710;28;19961;-59
2022/10/25 05:02:47;;;;;;;;;;;19.70;61.30;;;;;;5075830;28;20269;-59
2022/10/25 05:05:12;;;;;;;;;;;19.70;61.30;;;;;;5057497;28;19919;-59
2022/10/25 05:07:38;;;;;;;;;;;19.70;61.40;;;;;;5076118;28;19920;-59
2022/10/25 05:10:03;;;;;;;;;;;19.70;61.50;;;;;;5094948;28;19958;-60
2022/10/25 05:12:29;;;;;;;;;;;19.70;61.40;;;;;;5095980;28;20382;-59
2022/10/25 05:14:54;;;;;;;;;;;19.70;61.30;;;;;;5095678;28;19908;-60
2022/10/25 05:17:19;;;;;;;;;;;19.70;61.20;;;;;;5095798;28;19912;-60
2022/10/25 05:19:45;;;;;;;;;;;19.70;61.20;;;;;;5086311;28;19962;-59
2022/10/25 05:22:10;;;;;;;;;;;19.70;61.20;;;;;;5075699;28;19923;-59
2022/10/25 05:24:36;;;;;;;;;;;19.70;61.20;;;;;;5074450;28;19917;-60
2022/10/25 05:27:02;;;;;;;;;;;19.80;61.20;;;;;;5075446;28;19935;-59
2022/10/25 05:29:28;;;;;;;;;;;19.70;61.10;;;;;;5075280;28;20326;-59
2022/10/25 05:31:53;;;;;;;;;;;19.70;61.20;;;;;;5075647;28;19927;-59
2022/10/25 05:34:19;;;;;;;;;;;19.70;61.00;;;;;;5075285;28;19999;-59
2022/10/25 05:36:44;;;;;;;;;;;19.70;61.00;;;;;;5075423;28;19908;-59
2022/10/25 05:39:10;;;;;;;;;;;19.70;60.90;;;;;;5087422;28;19916;-59
2022/10/25 05:41:35;;;;;;;;;;;19.70;60.90;;;;;;5076799;28;19908;-59
2022/10/25 05:44:00;;;;;;;;;;;19.70;60.90;;;;;;5095399;28;19971;-59
2022/10/25 05:46:26;;;;;;;;;;;19.70;61.00;;;;;;5095204;28;20356;-59
2022/10/25 05:48:52;;;;;;;;;;;19.70;61.00;;;;;;5095693;28;19908;-59
2022/10/25 05:51:19;;;;;;;;;;;19.70;61.00;;;;;;5095470;28;20007;-59
2022/10/25 05:53:44;;;;;;;;;;;19.70;61.10;;;;;;5077584;28;19910;-60
2022/10/25 05:56:10;;;;;;;;;;;19.70;61.10;;;;;;5094165;28;20278;-59
2022/10/25 05:58:35;;;;;;;;;;;19.70;61.20;;;;;;5076935;28;19918;-59
2022/10/25 06:01:01;;;;;;;;;;;19.60;61.20;;;;;;5094928;28;20003;-59
2022/10/25 06:03:26;;;;;;;;;;;19.70;61.30;;;;;;5094832;28;19915;-59
2022/10/25 06:05:52;;;;;;;;;;;19.60;61.20;;;;;;5094633;28;20333;-59
2022/10/25 06:08:17;;;;;;;;;;;19.70;61.20;;;;;;5091346;28;19909;-58
2022/10/25 06:10:43;;;;;;;;;;;19.60;61.20;;;;;;5073936;28;20004;-59
2022/10/25 06:13:08;;;;;;;;;;;19.70;61.30;;;;;;5074457;28;19908;-60
2022/10/25 06:15:35;;;;;;;;;;;19.70;61.30;;;;;;5056236;28;19958;-59
2022/10/25 06:18:01;;;;;;;;;;;19.70;61.20;;;;;;5056671;28;19913;-58
2022/10/25 06:20:26;;;;;;;;;;;19.60;61.20;;;;;;5074097;28;19931;-60
2022/10/25 06:22:52;;;;;;;;;;;19.70;61.20;;;;;;5074355;28;19994;-59
2022/10/25 06:25:17;;;;;;;;;;;19.60;61.20;;;;;;5073326;28;19909;-60
2022/10/25 06:27:43;;;;;;;;;;;19.60;61.20;;;;;;5074306;28;19909;-59
2022/10/25 06:30:08;;;;;;;;;;;19.60;61.30;;;;;;5073901;28;20409;-60
2022/10/25 06:32:36;;;;;;;;;;;19.60;61.40;;;;;;5074184;28;20433;-60
2022/10/25 06:35:02;;;;;;;;;;;19.60;61.40;;;;;;5055973;28;19920;-60
2022/10/25 06:37:28;;;;;;;;;;;19.60;61.30;;;;;;5056240;28;19908;-59
2022/10/25 06:39:54;;;;;;;;;;;19.70;61.30;;;;;;5074516;28;19912;-59
2022/10/25 06:42:19;;;;;;;;;;;19.60;61.30;;;;;;5094281;28;19912;-59
2022/10/25 06:44:44;;;;;;;;;;;19.60;61.30;;;;;;5094082;28;19908;-59
2022/10/25 06:47:10;;;;;;;;;;;19.60;61.40;;;;;;5090112;28;19954;-60
2022/10/25 06:49:35;;;;;;;;;;;19.60;61.30;;;;;;5073761;28;19931;-60
2022/10/25 06:52:01;;;;;;;;;;;19.60;61.20;;;;;;5054923;28;19991;-59
2022/10/25 06:54:26;;;;;;;;;;;19.60;61.20;;;;;;5054865;28;19912;-60
2022/10/25 06:56:52;;;;;;;;;;;19.60;61.20;;;;;;5073970;28;19975;-59
2022/10/25 06:59:19;;;;;;;;;;;19.60;61.30;;;;;;5073474;28;20283;-59
2022/10/25 07:01:44;;;;;;;;;;;19.60;61.40;;;;;;5055745;28;19908;-59
2022/10/25 07:04:10;;;;;;;;;;;19.60;61.40;;;;;;5055605;28;20612;-59
2022/10/25 07:06:36;;;;;;;;;;;19.60;61.30;;;;;;5073194;28;19920;-59
2022/10/25 07:09:01;;;;;;;;;;;19.60;61.40;;;;;;5085434;28;19912;-60
2022/10/25 07:11:28;;;;;;;;;;;19.60;61.40;;;;;;5092675;28;20380;-60
2022/10/25 07:13:54;;;;;;;;;;;19.60;61.50;;;;;;5075457;28;19908;-60
2022/10/25 07:16:19;;;;;;;;;;;19.60;61.50;;;;;;5093395;28;19939;-60
2022/10/25 07:18:45;;;;;;;;;;;19.60;61.50;;;;;;5093653;28;20382;-59
2022/10/25 07:21:11;;;;;;;;;;;19.60;61.50;;;;;;5093230;28;19909;-59
2022/10/25 07:23:41;;;;;;;;;;;19.50;61.40;;;;;;5075397;28;19909;-59
2022/10/25 07:26:09;;;;;;;;;;;19.60;61.50;;;;;;5092489;28;20441;-59
2022/10/25 07:28:35;;;;;;;;;;;19.60;61.40;;;;;;5093413;28;19909;-59
2022/10/25 07:31:00;;;;;;;;;;;19.60;61.40;;;;;;5093210;28;19999;-59
2022/10/25 07:33:26;;;;;;;;;;;19.60;61.40;;;;;;5093366;28;19908;-59
2022/10/25 07:35:51;;;;;;;;;;;19.60;61.50;;;;;;5075137;28;19961;-60
2022/10/25 07:38:17;;;;;;;;;;;19.60;61.40;;;;;;5081158;28;19912;-59
2022/10/25 07:40:42;;;;;;;;;;;19.60;61.30;;;;;;5092485;28;19915;-60
2022/10/25 07:43:08;;;;;;;;;;;19.60;61.40;;;;;;5074974;28;20306;-58
2022/10/25 07:45:33;;;;;;;;;;;19.60;61.40;;;;;;5092931;28;20003;-59
2022/10/25 07:47:59;;;;;;;;;;;19.60;61.50;;;;;;5074947;28;19908;-59
2022/10/25 07:50:24;;;;;;;;;;;19.60;61.40;;;;;;5093030;28;19931;-59
2022/10/25 07:52:50;;;;;;;;;;;19.60;61.50;;;;;;5092994;28;19961;-59
2022/10/25 07:55:15;;;;;;;;;;;19.60;61.50;;;;;;5091879;28;19914;-60
2022/10/25 07:57:41;;;;;;;;;;;19.60;61.50;;;;;;5092778;28;19912;-59
2022/10/25 08:00:06;;;;;;;;;;;19.60;61.50;;;;;;5092587;28;19908;-59
2022/10/25 08:02:32;;;;;;;;;;;19.60;61.50;;;;;;5074841;28;19919;-59
2022/10/25 08:04:57;;;;;;;;;;;19.50;61.50;;;;;;5092644;28;19912;-59
2022/10/25 08:07:23;;;;;;;;;;;19.50;61.60;;;;;;5092733;28;19927;-60
2022/10/25 08:09:48;;;;;;;;;;;19.50;61.60;;;;;;5075335;28;20015;-59
2022/10/25 08:12:13;;;;;;;;;;;19.50;61.70;;;;;;5072470;28;19908;-58
2022/10/25 08:14:39;;;;;;;;;;;19.50;61.60;;;;;;5072285;28;19948;-59
2022/10/25 08:17:04;;;;;;;;;;;19.50;61.70;;;;;;5054493;28;19920;-58
2022/10/25 08:19:30;;;;;;;;;;;19.50;61.70;;;;;;5072241;28;19912;-59
2022/10/25 08:21:55;;;;;;;;;;;19.50;61.80;;;;;;5072418;28;19912;-59
2022/10/25 08:24:21;;;;;;;;;;;19.50;61.80;;;;;;5054195;28;19912;-59
2022/10/25 08:26:46;;;;;;;;;;;19.50;61.60;;;;;;5071867;28;19948;-59
2022/10/25 08:29:11;;;;;;;;;;;19.50;61.60;;;;;;5072241;28;20288;-60
2022/10/25 08:31:37;;;;;;;;;;;19.50;61.70;;;;;;5072309;28;19908;-60
2022/10/25 08:34:02;;;;;;;;;;;19.60;61.70;;;;;;5072280;28;19908;-59
2022/10/25 08:36:28;;;;;;;;;;;19.60;61.50;;;;;;5054301;28;19909;-60
2022/10/25 08:38:53;;;;;;;;;;;19.60;61.50;;;;;;5083258;28;19962;-59
2022/10/25 08:41:34;;;;;;;;;;;19.60;61.50;;;;;;5091986;28;19954;-59
2022/10/25 08:44:00;;;;;;;;;;;19.60;61.50;;;;;;5092448;28;19915;-59
2022/10/25 08:46:25;;;;;;;;;;;19.60;61.50;;;;;;5092440;28;19908;-59
2022/10/25 08:48:52;;;;;;;;;;;19.60;61.50;;;;;;5092508;28;19912;-59
2022/10/25 08:51:24;;;;;;;;;;;19.60;61.40;;;;;;5092472;28;20328;-58
2022/10/25 08:53:49;;;;;;;;;;;19.70;61.50;;;;;;5092456;28;19953;-58
2022/10/25 08:56:15;;;;;;;;;;;19.70;61.50;;;;;;5073284;28;20007;-59
2022/10/25 08:58:48;;;;;;;;;;;19.70;61.50;;;;;;5079672;28;19916;-59
2022/10/25 09:01:15;;;;;;;;;;;19.70;61.50;;;;;;5054186;28;19912;-59
2022/10/25 09:03:40;;;;;;;;;;;19.70;61.50;;;;;;5054144;28;19916;-59
2022/10/25 09:06:19;;;;;;;;;;;19.70;61.50;;;;;;5050452;28;20360;-59
2022/10/25 09:08:48;;;;;;;;;;;19.70;61.50;;;;;;5060438;28;19948;-59
2022/10/25 09:11:21;;;;;;;;;;;19.70;61.50;;;;;;5069796;28;19952;-59
2022/10/25 09:13:49;;;;;;;;;;;19.70;61.60;;;;;;5070845;28;19908;-59
2022/10/25 09:16:16;;;;;;;;;;;19.60;61.50;;;;;;5073886;28;19912;-59
2022/10/25 09:18:41;;;;;;;;;;;19.70;61.60;;;;;;5075498;28;19966;-59
2022/10/25 09:21:08;;;;;;;;;;;19.60;61.60;;;;;;5073933;28;19909;-60
2022/10/25 09:23:34;;;;;;;;;;;19.60;61.70;;;;;;5057467;28;19909;-60
2022/10/25 09:26:01;;;;;;;;;;;19.60;61.70;;;;;;5073168;28;19908;-59
2022/10/25 09:28:41;;;;;;;;;;;19.60;61.70;;;;;;5074234;28;19908;-59
2022/10/25 09:31:06;;;;;;;;;;;19.60;61.70;;;;;;5074033;28;19991;-60
2022/10/25 09:33:32;;;;;;;;;;;19.60;61.90;;;;;;5075506;28;20402;-59
2022/10/25 09:35:57;;;;;;;;;;;19.60;61.90;;;;;;5073915;28;19908;-59
2022/10/25 09:38:37;;;;;;;;;;;19.60;61.90;;;;;;5062025;28;19995;-59
2022/10/25 09:41:04;;;;;;;;;;;19.60;61.80;;;;;;5073026;28;19943;-58
2022/10/25 09:43:56;;;;;;;;;;;19.60;61.90;;;;;;5073865;28;20390;-60
2022/10/25 09:46:42;;;;;;;;;;;19.60;61.90;;;;;;5072644;28;19982;-58
2022/10/25 09:49:13;;;;;;;;;;;19.60;61.80;;;;;;5074564;28;19999;-59
2022/10/25 09:51:50;;;;;;;;;;;19.60;61.70;;;;;;5074948;28;19916;-60
2022/10/25 09:54:33;;;;;;;;;;;19.60;61.70;;;;;;5074480;28;19961;-59
2022/10/25 09:56:59;;;;;;;;;;;19.60;61.70;;;;;;5073606;28;19915;-59
2022/10/25 09:59:26;;;;;;;;;;;19.70;61.80;;;;;;5074583;28;20331;-59
2022/10/25 10:01:52;;;;;;;;;;;19.70;61.70;;;;;;5074975;28;19954;-59
2022/10/25 10:04:17;;;;;;;;;;;19.70;61.60;;;;;;5074542;28;19908;-58
2022/10/25 10:06:43;;;;;;;;;;;19.70;61.60;;;;;;5083925;28;20502;-59
2022/10/25 10:09:09;;;;;;;;;;;19.70;61.60;;;;;;5094482;28;20060;-60
2022/10/25 10:11:35;;;;;;;;;;;19.70;61.50;;;;;;5076037;28;19954;-59
2022/10/25 10:14:02;;;;;;;;;;;19.70;61.50;;;;;;5076614;28;19908;-58
2022/10/25 10:16:34;;;;;;;;;;;19.70;61.50;;;;;;5076279;28;19930;-59
2022/10/25 10:19:13;;;;;;;;;;;19.80;61.60;;;;;;5084075;28;19962;-60
2022/10/25 10:21:57;;;;;;;;;;;19.80;61.40;;;;;;5094496;28;19908;-59
2022/10/25 10:24:33;;;;;;;;;;;19.80;61.50;;;;;;5076036;28;19958;-60
2022/10/25 10:27:12;;;;;;;;;;;19.70;61.70;;;;;;5062530;28;20405;-60
2022/10/25 10:29:49;;;;;;;;;;;19.70;61.50;;;;;;5073968;28;19908;-59
2022/10/25 10:32:21;;;;;;;;;;;19.80;61.60;;;;;;5074386;28;19909;-60
2022/10/25 10:34:50;;;;;;;;;;;19.80;61.60;;;;;;5056016;28;19915;-59
2022/10/25 10:37:16;;;;;;;;;;;19.80;61.60;;;;;;5074043;28;19915;-59
2022/10/25 10:39:48;;;;;;;;;;;19.80;61.60;;;;;;5090439;28;19916;-59
2022/10/25 10:42:16;;;;;;;;;;;19.80;61.50;;;;;;5094420;28;19923;-59
2022/10/25 10:44:44;;;;;;;;;;;19.80;61.50;;;;;;5094032;28;19912;-60
2022/10/25 10:47:10;;;;;;;;;;;19.80;61.70;;;;;;5076011;28;19909;-60
2022/10/25 10:49:36;;;;;;;;;;;19.80;61.70;;;;;;5075962;28;19908;-60
2022/10/25 10:52:02;;;;;;;;;;;19.70;61.70;;;;;;5075792;28;19961;-60
2022/10/25 10:54:46;;;;;;;;;;;19.80;62.50;;;;;;5093587;28;20288;-59
2022/10/25 10:57:18;;;;;;;;;;;19.70;61.80;;;;;;5094029;28;19914;-59
2022/10/25 10:59:54;;;;;;;;;;;19.70;61.70;;;;;;5055654;28;19995;-60
2022/10/25 11:02:19;;;;;;;;;;;19.80;61.70;;;;;;5055961;28;19908;-60
2022/10/25 11:04:45;;;;;;;;;;;19.80;61.80;;;;;;5073066;28;20443;-60
2022/10/25 11:07:23;;;;;;;;;;;19.80;61.70;;;;;;5055453;28;19928;-60
2022/10/25 11:09:49;;;;;;;;;;;19.80;61.60;;;;;;5073344;28;19947;-60
2022/10/25 11:12:14;;;;;;;;;;;19.90;61.50;;;;;;5075621;28;19908;-60
2022/10/25 11:14:40;;;;;;;;;;;19.90;61.40;;;;;;5093743;28;19908;-60
2022/10/25 11:17:07;;;;;;;;;;;19.90;61.30;;;;;;5093552;28;19908;-60
2022/10/25 11:19:45;;;;;;;;;;;19.90;61.30;;;;;;5075492;28;19919;-60
2022/10/25 11:22:10;;;;;;;;;;;19.90;61.30;;;;;;5075540;28;20317;-59
2022/10/25 11:24:53;;;;;;;;;;;19.90;61.40;;;;;;5092506;28;19915;-60
2022/10/25 11:27:41;;;;;;;;;;;19.90;61.40;;;;;;5093384;28;19908;-59
2022/10/25 11:30:08;;;;;;;;;;;20.00;61.40;;;;;;5074909;28;19908;-59
2022/10/25 11:32:39;;;;;;;;;;;20.00;61.40;;;;;;5093141;28;19908;-60
2022/10/25 11:35:23;;;;;;;;;;;20.00;61.40;;;;;;5092997;28;19916;-60
2022/10/25 11:37:52;;;;;;;;;;;19.90;61.30;;;;;;5080924;28;20372;-59
2022/10/25 11:40:18;;;;;;;;;;;20.00;61.50;;;;;;5091990;28;19912;-59
2022/10/25 11:42:46;;;;;;;;;;;20.00;61.50;;;;;;5093353;28;19999;-60
2022/10/25 11:45:23;;;;;;;;;;;19.90;61.40;;;;;;5092844;28;19935;-60
2022/10/25 11:47:49;;;;;;;;;;;20.00;61.50;;;;;;5075123;28;19908;-60
2022/10/25 11:50:33;;;;;;;;;;;19.90;61.60;;;;;;5074513;28;19908;-60
2022/10/25 11:52:58;;;;;;;;;;;19.80;61.70;;;;;;5093075;28;20279;-59
2022/10/25 11:55:33;;;;;;;;;;;19.80;62.00;;;;;;5092112;28;19908;-60
2022/10/25 11:58:02;;;;;;;;;;;19.80;62.10;;;;;;5074927;28;19908;-60
2022/10/25 12:00:37;;;;;;;;;;;19.80;62.40;;;;;;5074645;28;19908;-60
2022/10/25 12:03:21;;;;;;;;;;;19.70;62.30;;;;;;5074856;28;20377;-59
2022/10/25 12:05:50;;;;;;;;;;;19.70;62.30;;;;;;5092479;28;19947;-60
2022/10/25 12:08:15;;;;;;;;;;;19.80;62.30;;;;;;5092955;28;19958;-60
2022/10/25 12:10:41;;;;;;;;;;;19.80;62.30;;;;;;5091808;28;19909;-60
2022/10/25 12:13:27;;;;;;;;;;;19.80;62.40;;;;;;5092914;28;20262;-60
2022/10/25 12:15:53;;;;;;;;;;;19.80;62.60;;;;;;5092550;28;19913;-59
2022/10/25 12:18:23;;;;;;;;;;;19.80;62.30;;;;;;5092515;28;19916;-60
2022/10/25 12:20:48;;;;;;;;;;;19.80;62.40;;;;;;5092585;28;19947;-60
2022/10/25 12:23:15;;;;;;;;;;;19.80;62.30;;;;;;5074568;28;20323;-60
2022/10/25 12:25:49;;;;;;;;;;;19.80;62.30;;;;;;5072038;28;19915;-60
2022/10/25 12:28:28;;;;;;;;;;;19.80;62.30;;;;;;5054660;28;19912;-60
2022/10/25 12:30:58;;;;;;;;;;;19.80;62.30;;;;;;5054513;28;19915;-60
2022/10/25 12:33:29;;;;;;;;;;;19.80;62.30;;;;;;5054486;28;19909;-60
2022/10/25 12:35:57;;;;;;;;;;;19.80;62.30;;;;;;5054041;28;19912;-59
2022/10/25 12:38:49;;;;;;;;;;;19.90;62.30;;;;;;5061299;28;19919;-60
2022/10/25 12:41:17;;;;;;;;;;;19.80;62.30;;;;;;5088406;28;19912;-60
2022/10/25 12:43:44;;;;;;;;;;;19.80;62.40;;;;;;5074534;28;19965;-60
2022/10/25 12:46:25;;;;;;;;;;;19.80;62.40;;;;;;5074027;28;19912;-59
2022/10/25 12:48:59;;;;;;;;;;;19.80;62.40;;;;;;5092422;28;19912;-60
2022/10/25 12:51:32;;;;;;;;;;;19.80;62.50;;;;;;5096139;28;19911;-60
2022/10/25 12:54:07;;;;;;;;;;;19.70;62.50;;;;;;5078270;28;19908;-59
2022/10/25 12:56:35;;;;;;;;;;;19.70;62.70;;;;;;5095825;28;19965;-60
2022/10/25 12:59:06;;;;;;;;;;;19.70;62.60;;;;;;5081112;28;19912;-59
2022/10/25 13:01:44;;;;;;;;;;;19.80;62.70;;;;;;5075909;28;19909;-60
2022/10/25 13:04:13;;;;;;;;;;;19.80;62.50;;;;;;5075783;28;20003;-60
2022/10/25 13:06:42;;;;;;;;;;;19.70;62.40;;;;;;5075542;28;19921;-60
2022/10/25 13:09:08;;;;;;;;;;;19.70;62.60;;;;;;5088436;28;19916;-60
2022/10/25 13:11:35;;;;;;;;;;;19.70;62.60;;;;;;5095563;28;19942;-61
2022/10/25 13:14:01;;;;;;;;;;;19.70;62.50;;;;;;5095835;28;19967;-60
2022/10/25 13:16:27;;;;;;;;;;;19.70;62.60;;;;;;5095845;28;19955;-60
2022/10/25 13:19:13;;;;;;;;;;;19.70;62.70;;;;;;5077827;28;19920;-60
2022/10/25 13:21:53;;;;;;;;;;;19.70;62.70;;;;;;5084769;28;19930;-60
2022/10/25 13:24:37;;;;;;;;;;;19.70;62.70;;;;;;5095571;28;20007;-60
2022/10/25 13:27:15;;;;;;;;;;;19.70;62.80;;;;;;5095654;28;19912;-60
2022/10/25 13:30:02;;;;;;;;;;;19.70;62.70;;;;;;5095357;28;19909;-60
2022/10/25 13:32:28;;;;;;;;;;;19.70;62.70;;;;;;5095637;28;19915;-60
2022/10/25 13:34:57;;;;;;;;;;;19.70;62.60;;;;;;5077217;28;20040;-60
2022/10/25 13:37:32;;;;;;;;;;;19.70;62.60;;;;;;5085606;28;19915;-60
2022/10/25 13:39:58;;;;;;;;;;;19.70;62.40;;;;;;5093952;28;19920;-60
2022/10/25 13:42:33;;;;;;;;;;;19.70;62.40;;;;;;5077530;28;19912;-60
2022/10/25 13:45:04;;;;;;;;;;;19.70;62.40;;;;;;5077021;28;20405;-60
2022/10/25 13:47:33;;;;;;;;;;;19.80;62.40;;;;;;5077554;28;20274;-59
2022/10/25 13:49:58;;;;;;;;;;;19.80;62.30;;;;;;5094872;28;19908;-60
2022/10/25 13:52:31;;;;;;;;;;;19.80;62.30;;;;;;5095323;28;19998;-60
2022/10/25 13:54:56;;;;;;;;;;;19.80;62.20;;;;;;5094097;28;19908;-60
2022/10/25 13:57:40;;;;;;;;;;;19.80;62.10;;;;;;5076932;28;19912;-60
2022/10/25 14:00:28;;;;;;;;;;;19.80;62.20;;;;;;5094150;28;19912;-60
2022/10/25 14:03:09;;;;;;;;;;;19.80;62.30;;;;;;5095502;28;19908;-60
2022/10/25 14:05:53;;;;;;;;;;;19.80;62.30;;;;;;5095032;28;19916;-60
2022/10/25 14:08:20;;;;;;;;;;;19.80;62.20;;;;;;5094925;28;19920;-60
2022/10/25 14:10:46;;;;;;;;;;;19.80;62.20;;;;;;5094010;28;20287;-60
2022/10/25 14:13:21;;;;;;;;;;;19.80;62.20;;;;;;5094802;28;19908;-60
2022/10/25 14:15:57;;;;;;;;;;;19.80;62.20;;;;;;5060091;28;19908;-60
2022/10/25 14:18:23;;;;;;;;;;;19.80;62.20;;;;;;5076711;28;19916;-60
2022/10/25 14:20:50;;;;;;;;;;;19.80;62.00;;;;;;5076562;28;19908;-59
2022/10/25 14:23:23;;;;;;;;;;;19.90;61.90;;;;;;5076655;28;19998;-60